createdAt,value
2022-09-26T00:01:35.902Z,4.88
2022-09-26T00:04:09.870Z,5.60
2022-09-26T00:06:36.814Z,5.90
2022-09-26T00:09:03.884Z,5.93
2022-09-26T00:11:34.348Z,4.28
2022-09-26T00:14:06.008Z,8.60
2022-09-26T00:16:33.385Z,4.15
2022-09-26T00:19:01.233Z,8.13
2022-09-26T00:21:30.213Z,6.63
2022-09-26T00:23:58.659Z,5.10
2022-09-26T00:26:27.923Z,6.07
2022-09-26T00:28:56.836Z,9.20
2022-09-26T00:31:32.808Z,6.22
2022-09-26T00:34:00.223Z,6.30
2022-09-26T00:36:37.486Z,5.38
2022-09-26T00:39:11.707Z,6.72
2022-09-26T00:41:39.126Z,7.90
2022-09-26T00:44:44.993Z,5.82
2022-09-26T00:47:31.787Z,6.13
2022-09-26T00:50:10.737Z,5.20
2022-09-26T00:53:05.381Z,5.53
2022-09-26T00:55:38.835Z,5.65
2022-09-26T00:58:14.135Z,5.97
2022-09-26T01:00:43.371Z,3.92
2022-09-26T01:03:10.308Z,9.95
2022-09-26T01:05:38.001Z,9.27
2022-09-26T01:08:06.178Z,10.07
2022-09-26T01:10:36.563Z,5.70
2022-09-26T01:13:05.233Z,5.70
2022-09-26T01:15:36.549Z,8.02
2022-09-26T01:18:05.015Z,4.40
2022-09-26T01:20:59.206Z,5.40
2022-09-26T01:24:00.324Z,8.45
2022-09-26T01:27:02.956Z,5.43
2022-09-26T01:30:07.575Z,6.25
2022-09-26T01:33:32.803Z,8.38
2022-09-26T01:36:39.253Z,10.27
2022-09-26T01:39:39.867Z,11.23
2022-09-26T01:42:26.913Z,7.82
2022-09-26T01:45:00.099Z,5.82
2022-09-26T01:47:48.692Z,6.28
2022-09-26T01:50:40.922Z,6.35
2022-09-26T01:53:19.714Z,6.57
2022-09-26T01:56:00.257Z,7.40
2022-09-26T01:58:40.899Z,9.18
2022-09-26T02:01:14.006Z,9.35
2022-09-26T02:03:49.587Z,6.43
2022-09-26T02:06:28.260Z,16.42
2022-09-26T02:09:28.063Z,9.18
2022-09-26T02:12:03.119Z,11.73
2022-09-26T02:14:35.875Z,13.05
2022-09-26T02:17:11.975Z,9.82
2022-09-26T02:19:59.985Z,8.00
2022-09-26T02:22:33.948Z,8.63
2022-09-26T02:25:03.214Z,7.15
2022-09-26T02:27:30.481Z,7.13
2022-09-26T02:29:57.581Z,7.93
2022-09-26T02:32:30.249Z,10.35
2022-09-26T02:34:58.936Z,9.00
2022-09-26T02:37:28.823Z,10.48
2022-09-26T02:39:56.856Z,9.23
2022-09-26T02:42:44.689Z,14.13
2022-09-26T02:45:58.202Z,8.75
2022-09-26T02:49:09.978Z,9.73
2022-09-26T02:52:07.915Z,7.95
2022-09-26T02:55:03.667Z,10.35
2022-09-26T02:57:54.313Z,12.65
2022-09-26T03:00:31.632Z,8.35
2022-09-26T03:03:16.406Z,9.07
2022-09-26T03:05:46.375Z,8.57
2022-09-26T03:08:29.797Z,7.53
2022-09-26T03:11:02.527Z,12.35
2022-09-26T03:13:35.823Z,9.10
2022-09-26T03:16:03.280Z,8.98
2022-09-26T03:18:44.190Z,9.10
2022-09-26T03:21:11.436Z,8.45
2022-09-26T03:23:38.928Z,6.35
2022-09-26T03:26:13.873Z,15.60
2022-09-26T03:28:56.252Z,6.35
2022-09-26T03:31:28.255Z,5.25
2022-09-26T03:34:04.859Z,8.80
2022-09-26T03:36:32.260Z,8.45
2022-09-26T03:39:01.056Z,6.95
2022-09-26T03:41:45.762Z,13.20
2022-09-26T03:44:19.074Z,11.45
2022-09-26T03:47:04.915Z,7.28
2022-09-26T03:49:36.232Z,8.93
2022-09-26T03:52:03.937Z,6.00
2022-09-26T03:54:31.880Z,6.97
2022-09-26T03:56:59.090Z,9.93
2022-09-26T03:59:27.034Z,8.75
2022-09-26T04:01:55.452Z,6.70
2022-09-26T04:04:22.829Z,6.32
2022-09-26T04:06:51.326Z,7.05
2022-09-26T04:09:18.869Z,8.93
2022-09-26T04:11:50.438Z,8.48
2022-09-26T04:14:18.552Z,6.10
2022-09-26T04:16:49.063Z,6.45
2022-09-26T04:19:26.844Z,7.38
2022-09-26T04:21:54.019Z,7.00
2022-09-26T04:24:21.654Z,6.80
2022-09-26T04:26:48.918Z,8.60
2022-09-26T04:29:17.122Z,8.23
2022-09-26T04:32:04.899Z,10.05
2022-09-26T04:34:43.453Z,9.05
2022-09-26T04:37:10.507Z,6.32
2022-09-26T04:39:37.713Z,9.38
2022-09-26T04:42:04.825Z,8.75
2022-09-26T04:44:32.884Z,7.72
2022-09-26T04:46:59.795Z,7.43
2022-09-26T04:49:43.008Z,6.25
2022-09-26T04:52:09.871Z,7.95
2022-09-26T04:54:38.423Z,3.80
2022-09-26T04:57:05.729Z,7.43
2022-09-26T04:59:32.895Z,7.80
2022-09-26T05:02:03.518Z,8.85
2022-09-26T05:04:36.834Z,4.30
2022-09-26T05:07:03.931Z,6.95
2022-09-26T05:09:35.874Z,7.15
2022-09-26T05:12:17.225Z,3.53
2022-09-26T05:14:47.436Z,10.00
2022-09-26T05:17:15.468Z,6.38
2022-09-26T05:19:45.695Z,6.80
2022-09-26T05:22:32.190Z,3.28
2022-09-26T05:25:17.927Z,5.28
2022-09-26T05:27:45.450Z,3.37
2022-09-26T05:30:13.056Z,6.20
2022-09-26T05:32:40.738Z,7.85
2022-09-26T05:35:08.667Z,5.55
2022-09-26T05:37:40.608Z,3.47
2022-09-26T05:40:27.462Z,2.72
2022-09-26T05:43:03.694Z,6.57
2022-09-26T05:47:59.037Z,4.50
2022-09-26T05:50:25.977Z,6.05
2022-09-26T05:52:58.436Z,6.47
2022-09-26T05:55:27.115Z,4.35
2022-09-26T05:58:09.924Z,3.78
2022-09-26T06:01:10.169Z,3.80
2022-09-26T06:03:38.077Z,11.52
2022-09-26T06:06:19.487Z,6.68
2022-09-26T06:08:48.913Z,3.00
2022-09-26T06:11:50.851Z,6.68
2022-09-26T06:14:17.754Z,4.97
2022-09-26T06:16:44.891Z,5.68
2022-09-26T06:19:13.926Z,4.90
2022-09-26T06:21:44.035Z,5.35
2022-09-26T06:24:14.468Z,3.00
2022-09-26T06:26:44.192Z,5.70
2022-09-26T06:29:12.889Z,3.67
2022-09-26T06:31:41.824Z,6.22
2022-09-26T06:34:12.969Z,5.15
2022-09-26T06:36:57.402Z,4.88
2022-09-26T06:39:33.417Z,5.90
2022-09-26T06:42:00.262Z,2.83
2022-09-26T06:44:50.397Z,4.63
2022-09-26T06:47:47.371Z,4.50
2022-09-26T06:50:29.046Z,4.93
2022-09-26T06:53:09.447Z,3.72
2022-09-26T06:55:36.634Z,5.88
2022-09-26T06:58:03.541Z,6.07
2022-09-26T07:00:37.137Z,6.35
2022-09-26T07:03:08.819Z,11.05
2022-09-26T07:05:51.817Z,3.95
2022-09-26T07:08:18.812Z,5.85
2022-09-26T07:10:47.115Z,2.83
2022-09-26T07:13:22.333Z,6.75
2022-09-26T07:15:50.841Z,4.85
2022-09-26T07:18:42.186Z,5.85
2022-09-26T07:21:34.999Z,5.57
2022-09-26T07:24:08.853Z,3.15
2022-09-26T07:26:35.906Z,3.90
2022-09-26T07:29:03.786Z,3.92
2022-09-26T07:31:31.260Z,5.00
2022-09-26T07:34:24.977Z,6.45
2022-09-26T07:36:53.031Z,4.05
2022-09-26T07:39:20.179Z,9.60
2022-09-26T07:41:49.383Z,11.52
2022-09-26T07:45:09.340Z,6.60
2022-09-26T07:47:22.871Z,4.05
2022-09-26T07:50:08.606Z,2.72
2022-09-26T07:52:44.769Z,5.15
2022-09-26T07:55:25.587Z,3.78
2022-09-26T07:58:30.994Z,6.93
2022-09-26T08:01:20.665Z,7.53
2022-09-26T08:03:59.357Z,3.00
2022-09-26T08:06:34.944Z,6.70
2022-09-26T08:09:02.187Z,3.78
2022-09-26T08:11:48.057Z,5.47
2022-09-26T08:14:35.188Z,2.58
2022-09-26T08:17:18.813Z,3.38
2022-09-26T08:19:46.254Z,7.72
2022-09-26T08:22:14.634Z,3.00
2022-09-26T08:24:44.237Z,4.20
2022-09-26T08:27:34.915Z,4.43
2022-09-26T08:30:04.367Z,4.32
2022-09-26T08:32:32.378Z,6.50
2022-09-26T08:35:00.163Z,5.20
2022-09-26T08:37:33.331Z,2.33
2022-09-26T08:40:19.699Z,2.40
2022-09-26T08:43:52.408Z,8.25
2022-09-26T08:47:17.464Z,3.70
2022-09-26T08:50:32.559Z,6.13
2022-09-26T08:53:06.823Z,4.80
2022-09-26T08:55:46.918Z,4.72
2022-09-26T08:58:38.368Z,3.78
2022-09-26T09:01:17.239Z,4.30
2022-09-26T09:04:37.970Z,4.97
2022-09-26T09:07:20.798Z,4.32
2022-09-26T09:09:48.979Z,3.22
2022-09-26T09:12:54.745Z,6.38
2022-09-26T09:16:27.491Z,6.45
2022-09-26T09:19:21.551Z,6.78
2022-09-26T09:22:44.881Z,8.13
2022-09-26T09:29:52.465Z,5.43
2022-09-26T09:33:01.779Z,8.23
2022-09-26T09:35:44.145Z,2.00
2022-09-26T09:38:35.348Z,6.57
2022-09-26T09:41:21.386Z,3.85
2022-09-26T09:44:03.627Z,11.77
2022-09-26T09:46:39.912Z,6.78
2022-09-26T09:49:19.940Z,5.55
2022-09-26T09:52:39.819Z,17.30
2022-09-26T09:55:25.921Z,7.95
2022-09-26T09:58:06.047Z,6.88
2022-09-26T10:00:41.394Z,4.75
2022-09-26T10:06:01.344Z,4.30
2022-09-26T10:08:41.012Z,8.98
2022-09-26T10:11:39.289Z,3.03
2022-09-26T10:14:43.006Z,8.70
2022-09-26T10:17:36.751Z,4.05
2022-09-26T10:20:40.938Z,7.60
2022-09-26T10:23:28.028Z,16.48
2022-09-26T10:26:04.538Z,7.35
2022-09-26T10:28:50.216Z,3.95
2022-09-26T10:31:29.935Z,5.47
2022-09-26T10:34:29.238Z,2.42
2022-09-26T10:36:56.814Z,5.40
2022-09-26T10:39:48.976Z,5.45
2022-09-26T10:42:20.296Z,6.20
2022-09-26T10:44:50.859Z,10.18
2022-09-26T10:47:26.738Z,4.65
2022-09-26T10:50:17.300Z,3.58
2022-09-26T10:53:11.111Z,3.40
2022-09-26T10:55:46.575Z,4.85
2022-09-26T10:58:25.513Z,9.05
2022-09-26T11:00:57.383Z,8.13
2022-09-26T11:03:42.042Z,7.63
2022-09-26T11:06:40.942Z,10.18
2022-09-26T11:09:20.607Z,4.82
2022-09-26T11:12:28.075Z,9.75
2022-09-26T11:15:05.313Z,4.45
2022-09-26T11:17:48.023Z,4.85
2022-09-26T11:20:53.839Z,4.35
2022-09-26T11:23:32.010Z,5.25
2022-09-26T11:26:11.773Z,6.38
2022-09-26T11:29:03.913Z,5.40
2022-09-26T11:31:43.112Z,5.32
2022-09-26T11:34:31.370Z,5.68
2022-09-26T11:37:30.888Z,6.50
2022-09-26T11:40:10.048Z,4.72
2022-09-26T11:42:54.834Z,7.10
2022-09-26T11:45:53.647Z,7.47
2022-09-26T11:49:04.285Z,5.00
2022-09-26T11:52:14.742Z,3.33
2022-09-26T11:55:08.167Z,3.30
2022-09-26T11:58:05.014Z,2.78
2022-09-26T12:01:27.183Z,2.45
2022-09-26T12:04:15.907Z,2.70
2022-09-26T12:06:56.134Z,4.30
2022-09-26T12:10:14.539Z,1.75
2022-09-26T12:13:17.197Z,2.38
2022-09-26T12:16:14.516Z,3.30
2022-09-26T12:18:47.519Z,3.63
2022-09-26T12:21:37.450Z,2.88
2022-09-26T12:24:24.864Z,1.80
2022-09-26T12:27:08.143Z,4.55
2022-09-26T12:29:45.572Z,3.88
2022-09-26T12:32:35.194Z,1.55
2022-09-26T12:35:46.141Z,2.70
2022-09-26T12:38:58.738Z,3.40
2022-09-26T12:41:47.974Z,1.25
2022-09-26T12:45:00.960Z,1.65
2022-09-26T12:48:09.468Z,1.67
2022-09-26T12:50:52.482Z,2.47
2022-09-26T12:53:44.384Z,2.30
2022-09-26T12:56:34.590Z,3.45
2022-09-26T12:59:13.399Z,1.98
2022-09-26T13:02:04.910Z,2.22
2022-09-26T13:04:47.510Z,2.63
2022-09-26T13:07:34.992Z,3.47
2022-09-26T13:10:08.285Z,3.40
2022-09-26T13:12:47.102Z,2.83
2022-09-26T13:15:32.354Z,3.72
2022-09-26T13:18:15.521Z,2.70
2022-09-26T13:20:53.264Z,4.10
2022-09-26T13:23:31.282Z,5.03
2022-09-26T13:26:16.212Z,3.90
2022-09-26T13:29:24.439Z,2.78
2022-09-26T13:32:11.363Z,2.08
2022-09-26T13:35:13.456Z,1.63
2022-09-26T13:38:03.011Z,3.53
2022-09-26T13:40:57.924Z,2.92
2022-09-26T13:43:43.833Z,2.58
2022-09-26T13:46:40.089Z,2.20
2022-09-26T13:49:37.577Z,1.98
2022-09-26T13:52:52.448Z,2.20
2022-09-26T13:55:22.046Z,2.10
2022-09-26T13:58:04.029Z,3.78
2022-09-26T14:00:31.184Z,3.80
2022-09-26T14:03:09.887Z,2.05
2022-09-26T14:05:46.499Z,1.02
2022-09-26T14:08:44.545Z,1.45
2022-09-26T14:11:30.654Z,4.40
2022-09-26T14:16:55.167Z,2.50
2022-09-26T14:22:02.988Z,1.00
2022-09-26T14:24:38.171Z,1.00
2022-09-26T14:27:11.077Z,0.80
2022-09-26T14:29:46.576Z,1.85
2022-09-26T14:32:23.718Z,2.10
2022-09-26T14:34:54.040Z,0.70
2022-09-26T14:37:27.698Z,4.55
2022-09-26T14:40:07.199Z,0.93
2022-09-26T14:42:52.657Z,0.98
2022-09-26T14:45:43.973Z,1.40
2022-09-26T14:48:26.920Z,1.80
2022-09-26T14:51:16.069Z,0.95
2022-09-26T14:54:07.725Z,0.60
2022-09-26T14:56:43.008Z,1.40
2022-09-26T14:59:25.074Z,0.80
2022-09-26T15:01:53.985Z,1.92
2022-09-26T15:04:30.082Z,2.67
2022-09-26T15:07:03.765Z,1.15
2022-09-26T15:09:55.866Z,1.92
2022-09-26T15:12:37.234Z,1.45
2022-09-26T15:15:16.119Z,1.13
2022-09-26T15:17:53.063Z,2.40
2022-09-26T15:20:23.980Z,1.00
2022-09-26T15:22:54.255Z,1.08
2022-09-26T15:25:25.544Z,2.05
2022-09-26T15:27:54.962Z,1.30
2022-09-26T15:30:37.619Z,0.90
2022-09-26T15:33:05.646Z,1.13
2022-09-26T15:35:33.258Z,1.40
2022-09-26T15:38:12.088Z,1.50
2022-09-26T15:40:39.070Z,1.30
2022-09-26T15:43:22.226Z,2.97
2022-09-26T15:45:58.507Z,2.22
2022-09-26T15:48:25.548Z,1.80
2022-09-26T15:51:23.593Z,1.58
2022-09-26T15:54:05.367Z,2.72
2022-09-26T15:56:43.137Z,2.33
2022-09-26T15:59:38.592Z,1.75
2022-09-26T16:02:23.798Z,2.47
2022-09-26T16:04:54.801Z,2.95
2022-09-26T16:07:28.357Z,3.13
2022-09-26T16:09:56.581Z,3.80
2022-09-26T16:12:29.104Z,3.20
2022-09-26T16:15:06.051Z,4.65
2022-09-26T16:17:40.385Z,5.07
2022-09-26T16:20:09.938Z,5.28
2022-09-26T16:22:36.964Z,3.95
2022-09-26T16:25:15.906Z,3.40
2022-09-26T16:27:43.078Z,3.50
2022-09-26T16:30:30.240Z,3.67
2022-09-26T16:33:03.327Z,4.00
2022-09-26T16:35:33.645Z,4.53
2022-09-26T16:38:24.004Z,5.32
2022-09-26T16:40:54.184Z,3.40
2022-09-26T16:43:32.307Z,3.22
2022-09-26T16:46:04.507Z,4.53
2022-09-26T16:48:35.413Z,5.03
2022-09-26T16:51:39.814Z,6.45
2022-09-26T16:54:21.839Z,4.22
2022-09-26T16:56:51.579Z,3.85
2022-09-26T16:59:32.293Z,3.95
2022-09-26T17:02:02.246Z,5.85
2022-09-26T17:04:32.082Z,5.00
2022-09-26T17:07:01.367Z,4.28
2022-09-26T17:09:30.996Z,6.22
2022-09-26T17:12:17.795Z,3.58
2022-09-26T17:14:49.682Z,3.63
2022-09-26T17:17:25.233Z,3.42
2022-09-26T17:19:59.154Z,3.42
2022-09-26T17:22:28.060Z,3.60
2022-09-26T17:24:55.231Z,4.18
2022-09-26T17:27:26.995Z,7.88
2022-09-26T17:29:59.580Z,4.28
2022-09-26T17:32:44.128Z,3.40
2022-09-26T17:35:17.687Z,3.92
2022-09-26T17:37:44.554Z,5.38
2022-09-26T17:40:19.713Z,6.45
2022-09-26T17:42:46.982Z,4.78
2022-09-26T17:45:14.630Z,6.38
2022-09-26T17:47:41.603Z,5.00
2022-09-26T17:50:19.898Z,5.15
2022-09-26T17:52:47.317Z,5.18
2022-09-26T17:55:14.581Z,6.70
2022-09-26T17:57:42.080Z,6.45
2022-09-26T18:00:11.573Z,4.93
2022-09-26T18:02:45.163Z,6.78
2022-09-26T18:05:26.415Z,7.93
2022-09-26T18:07:58.803Z,6.20
2022-09-26T18:10:30.561Z,7.72
2022-09-26T18:13:09.430Z,6.22
2022-09-26T18:15:40.049Z,8.57
2022-09-26T18:18:15.137Z,7.32
2022-09-26T18:20:42.456Z,8.43
2022-09-26T18:23:17.139Z,13.43
2022-09-26T18:25:47.341Z,12.80
2022-09-26T18:28:20.473Z,10.90
2022-09-26T18:30:56.848Z,11.23
2022-09-26T18:33:27.810Z,14.35
2022-09-26T18:35:55.410Z,14.75
2022-09-26T18:38:22.437Z,14.20
2022-09-26T18:40:55.332Z,12.52
2022-09-26T18:43:25.115Z,20.08
2022-09-26T18:45:52.751Z,14.55
2022-09-26T18:48:32.836Z,14.15
2022-09-26T18:51:00.479Z,19.90
2022-09-26T18:53:30.276Z,14.20
2022-09-26T18:56:15.951Z,15.32
2022-09-26T18:58:44.029Z,13.38
2022-09-26T19:01:23.077Z,13.82
2022-09-26T19:03:50.305Z,13.18
2022-09-26T19:06:31.285Z,12.13
2022-09-26T19:09:10.947Z,14.40
2022-09-26T19:11:37.937Z,15.40
2022-09-26T19:14:13.539Z,16.40
2022-09-26T19:19:09.243Z,15.80
2022-09-26T19:21:46.455Z,16.30
2022-09-26T19:24:33.751Z,15.52
2022-09-26T19:27:06.593Z,22.02
2022-09-26T19:29:47.855Z,17.42
2022-09-26T19:32:29.435Z,18.08
2022-09-26T19:35:00.777Z,19.42
2022-09-26T19:37:28.258Z,17.73
2022-09-26T19:39:57.635Z,18.52
2022-09-26T19:42:26.089Z,21.25
2022-09-26T19:44:53.082Z,16.50
2022-09-26T19:47:23.601Z,21.00
2022-09-26T19:49:52.747Z,19.92
2022-09-26T19:52:21.115Z,21.33
2022-09-26T19:54:48.477Z,15.90
2022-09-26T19:57:20.969Z,17.90
2022-09-26T19:59:49.730Z,17.42
2022-09-26T20:02:31.389Z,18.88
2022-09-26T20:04:58.582Z,17.35
2022-09-26T20:07:25.482Z,20.85
2022-09-26T20:09:52.499Z,18.63
2022-09-26T20:12:19.416Z,18.05
2022-09-26T20:14:46.321Z,13.68
2022-09-26T20:17:21.977Z,17.27
2022-09-26T20:19:50.175Z,16.90
2022-09-26T20:22:21.843Z,17.40
2022-09-26T20:24:53.574Z,20.30
2022-09-26T20:27:24.151Z,13.20
2022-09-26T20:30:10.756Z,13.07
2022-09-26T20:32:37.889Z,13.77
2022-09-26T20:35:05.733Z,7.88
2022-09-26T20:37:38.708Z,4.72
2022-09-26T20:40:27.176Z,10.30
2022-09-26T20:42:59.289Z,7.80
2022-09-26T20:45:38.288Z,11.70
2022-09-26T20:48:19.821Z,3.65
2022-09-26T20:50:48.543Z,6.82
2022-09-26T20:53:21.150Z,4.72
2022-09-26T20:55:49.014Z,8.75
2022-09-26T20:58:16.343Z,3.17
2022-09-26T21:00:44.363Z,6.55
2022-09-26T21:03:13.643Z,8.23
2022-09-26T21:05:41.366Z,4.90
2022-09-26T21:08:34.498Z,7.85
2022-09-26T21:11:01.729Z,4.38
2022-09-26T21:13:28.600Z,4.85
2022-09-26T21:15:55.504Z,4.70
2022-09-26T21:18:29.405Z,8.15
2022-09-26T21:21:07.910Z,6.38
2022-09-26T21:23:53.574Z,3.50
2022-09-26T21:26:26.938Z,4.47
2022-09-26T21:28:55.405Z,3.60
2022-09-26T21:31:34.315Z,7.03
2022-09-26T21:34:01.741Z,6.60
2022-09-26T21:36:37.473Z,5.82
2022-09-26T21:41:32.011Z,5.85
2022-09-26T21:44:05.380Z,4.68
2022-09-26T21:46:32.302Z,10.50
2022-09-26T21:48:59.209Z,3.15
2022-09-26T21:51:28.184Z,10.20
2022-09-26T21:54:02.142Z,5.32
2022-09-26T21:56:35.553Z,2.65
2022-09-26T21:59:05.755Z,10.15
2022-09-26T22:01:32.674Z,6.68
2022-09-26T22:03:59.605Z,5.22
2022-09-26T22:06:27.070Z,4.53
2022-09-26T22:08:54.367Z,6.40
2022-09-26T22:11:21.682Z,8.18
2022-09-26T22:13:48.578Z,3.00
2022-09-26T22:16:15.798Z,5.85
2022-09-26T22:18:42.745Z,3.40
2022-09-26T22:21:11.288Z,6.13
2022-09-26T22:23:38.857Z,6.90
2022-09-26T22:26:06.765Z,7.75
2022-09-26T22:28:33.998Z,6.47
2022-09-26T22:31:02.844Z,3.58
2022-09-26T22:33:29.993Z,11.57
2022-09-26T22:35:57.492Z,3.33
2022-09-26T22:38:24.473Z,6.07
2022-09-26T22:41:05.681Z,3.88
2022-09-26T22:43:34.575Z,6.30
2022-09-26T22:46:11.020Z,6.88
2022-09-26T22:48:45.968Z,3.70
2022-09-26T22:51:14.802Z,8.93
2022-09-26T22:53:43.097Z,6.28
2022-09-26T22:56:15.070Z,5.03
2022-09-26T22:58:51.106Z,8.52
2022-09-26T23:01:25.315Z,4.80
2022-09-26T23:03:53.164Z,5.13
2022-09-26T23:06:21.750Z,2.85
2022-09-26T23:08:49.294Z,4.00
2022-09-26T23:11:18.392Z,6.25
2022-09-26T23:13:46.506Z,4.78
2022-09-26T23:16:20.569Z,7.28
2022-09-26T23:18:51.038Z,7.70
2022-09-26T23:21:21.342Z,9.35
2022-09-26T23:23:52.136Z,4.20
2022-09-26T23:26:26.052Z,5.25
2022-09-26T23:28:55.434Z,4.97
2022-09-26T23:31:23.785Z,9.82
2022-09-26T23:33:52.157Z,8.95
2022-09-26T23:36:19.634Z,5.88
2022-09-26T23:38:46.958Z,8.38
2022-09-26T23:41:14.508Z,5.70
2022-09-26T23:43:41.849Z,7.53
2022-09-26T23:46:10.237Z,8.90
2022-09-26T23:48:37.366Z,6.88
2022-09-26T23:51:04.687Z,7.03
2022-09-26T23:53:32.278Z,12.88
2022-09-26T23:56:05.947Z,6.50
2022-09-26T23:58:33.194Z,21.70
